createdAt,value
2023-08-27T00:01:18.452Z,5.53
2023-08-27T00:03:45.524Z,5.17
2023-08-27T00:06:12.225Z,4.60
2023-08-27T00:08:38.928Z,5.60
2023-08-27T00:11:05.738Z,4.90
2023-08-27T00:13:32.796Z,5.17
2023-08-27T00:15:59.572Z,4.80
2023-08-27T00:18:26.494Z,5.27
2023-08-27T00:20:53.325Z,5.17
2023-08-27T00:23:20.080Z,5.40
2023-08-27T00:25:47.403Z,5.27
2023-08-27T00:28:15.002Z,5.63
2023-08-27T00:30:42.413Z,5.07
2023-08-27T00:33:09.127Z,4.33
2023-08-27T00:35:37.706Z,5.20
2023-08-27T00:38:07.383Z,4.77
2023-08-27T00:40:34.248Z,5.20
2023-08-27T00:43:01.219Z,4.80
2023-08-27T00:45:28.457Z,4.83
2023-08-27T00:47:55.468Z,4.77
2023-08-27T00:50:22.698Z,4.53
2023-08-27T00:52:51.008Z,4.00
2023-08-27T00:55:17.875Z,4.60
2023-08-27T00:57:44.728Z,4.70
2023-08-27T01:00:12.144Z,4.20
2023-08-27T01:02:39.531Z,4.23
2023-08-27T01:05:06.749Z,5.10
2023-08-27T01:07:45.702Z,4.10
2023-08-27T01:10:21.742Z,3.90
2023-08-27T01:13:02.947Z,4.17
2023-08-27T01:15:30.630Z,4.00
2023-08-27T01:18:00.554Z,4.60
2023-08-27T01:20:28.221Z,3.97
2023-08-27T01:22:55.336Z,4.80
2023-08-27T01:25:43.566Z,4.40
2023-08-27T01:28:20.484Z,4.30
2023-08-27T01:30:56.995Z,4.20
2023-08-27T01:33:27.745Z,5.27
2023-08-27T01:35:56.490Z,3.90
2023-08-27T01:38:23.221Z,5.23
2023-08-27T01:40:49.875Z,4.97
2023-08-27T01:43:16.716Z,5.00
2023-08-27T01:45:43.450Z,4.80
2023-08-27T01:48:10.135Z,5.00
2023-08-27T01:50:36.792Z,4.00
2023-08-27T01:53:03.934Z,4.90
2023-08-27T01:55:30.716Z,4.07
2023-08-27T01:57:57.392Z,4.57
2023-08-27T02:00:24.107Z,4.37
2023-08-27T02:02:51.558Z,4.30
2023-08-27T02:05:18.622Z,4.27
2023-08-27T02:07:45.302Z,4.10
2023-08-27T02:10:11.938Z,4.60
2023-08-27T02:12:38.597Z,4.30
2023-08-27T02:15:07.931Z,4.37
2023-08-27T02:17:35.421Z,4.00
2023-08-27T02:20:07.519Z,4.47
2023-08-27T02:22:34.959Z,4.90
2023-08-27T02:25:01.991Z,4.50
2023-08-27T02:27:28.663Z,4.23
2023-08-27T02:29:55.322Z,4.60
2023-08-27T02:32:22.960Z,4.60
2023-08-27T02:34:50.147Z,3.70
2023-08-27T02:37:16.829Z,4.80
2023-08-27T02:39:43.470Z,4.23
2023-08-27T02:42:10.099Z,5.00
2023-08-27T02:44:36.771Z,5.27
2023-08-27T02:47:04.258Z,5.50
2023-08-27T02:49:30.917Z,4.73
2023-08-27T02:51:57.547Z,4.93
2023-08-27T02:54:24.224Z,5.20
2023-08-27T02:56:50.846Z,5.07
2023-08-27T02:59:17.520Z,4.13
2023-08-27T03:01:44.185Z,4.90
2023-08-27T03:04:10.883Z,4.50
2023-08-27T03:06:37.506Z,5.00
2023-08-27T03:09:04.173Z,4.10
2023-08-27T03:11:30.790Z,4.43
2023-08-27T03:13:57.426Z,4.47
2023-08-27T03:16:24.121Z,4.40
2023-08-27T03:18:50.833Z,4.50
2023-08-27T03:21:17.589Z,4.30
2023-08-27T03:23:44.245Z,4.40
2023-08-27T03:26:10.922Z,4.33
2023-08-27T03:28:37.586Z,4.10
2023-08-27T03:31:04.829Z,3.93
2023-08-27T03:33:33.098Z,3.87
2023-08-27T03:36:01.414Z,4.40
2023-08-27T03:38:28.326Z,4.00
2023-08-27T03:40:55.008Z,3.70
2023-08-27T03:43:22.079Z,4.30
2023-08-27T03:45:48.999Z,4.30
2023-08-27T03:48:16.050Z,4.17
2023-08-27T03:50:42.732Z,4.17
2023-08-27T03:53:11.308Z,3.93
2023-08-27T03:55:40.211Z,3.90
2023-08-27T03:58:08.236Z,3.70
2023-08-27T04:00:35.924Z,3.67
2023-08-27T04:03:03.777Z,3.73
2023-08-27T04:05:30.957Z,3.43
2023-08-27T04:07:57.674Z,4.30
2023-08-27T04:10:24.438Z,4.20
2023-08-27T04:12:51.149Z,4.87
2023-08-27T04:15:17.975Z,4.60
2023-08-27T04:17:44.701Z,4.13
2023-08-27T04:20:11.785Z,3.97
2023-08-27T04:22:38.446Z,3.73
2023-08-27T04:25:05.707Z,4.33
2023-08-27T04:27:32.424Z,3.77
2023-08-27T04:29:59.123Z,5.30
2023-08-27T04:32:26.587Z,3.80
2023-08-27T04:34:53.321Z,4.10
2023-08-27T04:37:19.994Z,4.27
2023-08-27T04:39:47.475Z,4.67
2023-08-27T04:42:15.002Z,4.07
2023-08-27T04:44:41.696Z,4.33
2023-08-27T04:47:08.453Z,3.90
2023-08-27T04:49:35.092Z,4.40
2023-08-27T04:52:01.735Z,4.30
2023-08-27T04:54:28.432Z,4.60
2023-08-27T04:56:55.171Z,4.30
2023-08-27T04:59:21.875Z,4.47
2023-08-27T05:01:48.531Z,4.17
2023-08-27T05:04:15.184Z,4.60
2023-08-27T05:06:41.915Z,4.13
2023-08-27T05:09:08.601Z,4.37
2023-08-27T05:11:35.234Z,4.40
2023-08-27T05:14:01.878Z,4.10
2023-08-27T05:16:30.195Z,4.23
2023-08-27T05:18:56.875Z,4.43
2023-08-27T05:21:23.542Z,4.50
2023-08-27T05:23:52.103Z,5.10
2023-08-27T05:26:18.744Z,4.53
2023-08-27T05:28:45.375Z,4.17
2023-08-27T05:31:12.123Z,4.50
2023-08-27T05:33:38.779Z,4.60
2023-08-27T05:36:05.608Z,4.60
2023-08-27T05:38:32.271Z,4.33
2023-08-27T05:41:00.032Z,3.90
2023-08-27T05:43:27.347Z,4.10
2023-08-27T05:45:54.334Z,4.30
2023-08-27T05:48:21.076Z,4.10
2023-08-27T05:50:47.785Z,4.30
2023-08-27T05:53:16.429Z,4.23
2023-08-27T05:55:45.243Z,4.37
2023-08-27T05:58:11.886Z,4.97
2023-08-27T06:00:38.548Z,4.37
2023-08-27T06:03:05.317Z,4.50
2023-08-27T06:05:32.104Z,4.87
2023-08-27T06:07:59.946Z,3.80
2023-08-27T06:10:26.779Z,4.47
2023-08-27T06:12:53.477Z,4.50
2023-08-27T06:15:20.163Z,4.50
2023-08-27T06:17:46.939Z,5.07
2023-08-27T06:20:13.664Z,4.47
2023-08-27T06:22:40.350Z,4.93
2023-08-27T06:25:08.444Z,4.67
2023-08-27T06:27:35.148Z,4.83
2023-08-27T06:30:01.886Z,5.00
2023-08-27T06:32:29.126Z,4.70
2023-08-27T06:34:56.049Z,3.80
2023-08-27T06:37:22.746Z,3.50
2023-08-27T06:39:50.383Z,3.80
2023-08-27T06:42:17.116Z,4.43
2023-08-27T06:44:43.779Z,4.40
2023-08-27T06:47:10.406Z,4.00
2023-08-27T06:49:37.112Z,3.90
2023-08-27T06:52:05.128Z,3.67
2023-08-27T06:54:31.995Z,4.40
2023-08-27T06:56:58.680Z,3.80
2023-08-27T06:59:25.317Z,3.87
2023-08-27T07:01:52.129Z,3.70
2023-08-27T07:04:18.829Z,4.50
2023-08-27T07:06:45.492Z,3.87
2023-08-27T07:09:12.433Z,4.03
2023-08-27T07:11:39.570Z,3.87
2023-08-27T07:14:07.148Z,4.20
2023-08-27T07:16:33.825Z,4.37
2023-08-27T07:19:00.954Z,4.40
2023-08-27T07:21:27.690Z,3.53
2023-08-27T07:23:54.324Z,4.20
2023-08-27T07:26:21.073Z,3.70
2023-08-27T07:28:47.743Z,4.13
2023-08-27T07:31:14.502Z,3.70
2023-08-27T07:33:41.306Z,3.40
2023-08-27T07:36:08.152Z,4.10
2023-08-27T07:38:41.668Z,2.90
2023-08-27T07:41:09.503Z,3.80
2023-08-27T07:43:36.364Z,3.50
2023-08-27T07:46:03.495Z,3.13
2023-08-27T07:48:32.123Z,3.60
2023-08-27T07:50:59.712Z,3.73
2023-08-27T07:53:26.814Z,3.20
2023-08-27T07:55:55.565Z,3.27
2023-08-27T07:58:22.883Z,7.90
2023-08-27T08:00:49.644Z,8.23
2023-08-27T08:03:16.432Z,5.03
2023-08-27T08:05:43.445Z,4.00
2023-08-27T08:08:10.182Z,4.00
2023-08-27T08:10:39.347Z,4.10
2023-08-27T08:13:06.316Z,5.10
2023-08-27T08:15:34.156Z,5.10
2023-08-27T08:18:00.928Z,4.07
2023-08-27T08:20:27.783Z,4.30
2023-08-27T08:22:54.490Z,4.90
2023-08-27T08:25:23.791Z,4.23
2023-08-27T08:27:50.458Z,4.20
2023-08-27T08:30:17.201Z,4.50
2023-08-27T08:32:44.313Z,4.60
2023-08-27T08:35:11.021Z,4.47
2023-08-27T08:37:37.695Z,4.77
2023-08-27T08:40:05.548Z,5.43
2023-08-27T08:43:01.069Z,4.90
2023-08-27T08:45:44.505Z,4.20
2023-08-27T08:48:12.778Z,4.00
2023-08-27T08:50:41.793Z,4.90
2023-08-27T08:53:18.890Z,4.30
2023-08-27T08:55:47.741Z,3.77
2023-08-27T08:58:14.887Z,4.67
2023-08-27T09:00:41.585Z,4.10
2023-08-27T09:03:08.898Z,4.23
2023-08-27T09:05:38.505Z,4.60
2023-08-27T09:08:05.790Z,4.20
2023-08-27T09:10:33.094Z,4.33
2023-08-27T09:13:03.725Z,4.57
2023-08-27T09:15:30.384Z,3.90
2023-08-27T09:17:57.414Z,3.53
2023-08-27T09:20:26.194Z,4.17
2023-08-27T09:22:52.983Z,3.30
2023-08-27T09:25:19.827Z,3.97
2023-08-27T09:27:46.635Z,3.50
2023-08-27T09:30:14.030Z,3.20
2023-08-27T09:32:40.784Z,3.20
2023-08-27T09:35:08.759Z,3.30
2023-08-27T09:37:40.610Z,3.13
2023-08-27T09:40:08.923Z,3.10
2023-08-27T09:42:35.911Z,3.70
2023-08-27T09:45:02.587Z,2.80
2023-08-27T09:47:34.417Z,3.17
2023-08-27T09:50:05.137Z,3.40
2023-08-27T09:52:31.838Z,3.20
2023-08-27T09:54:58.544Z,3.33
2023-08-27T09:57:25.265Z,3.07
2023-08-27T09:59:53.736Z,2.40
2023-08-27T10:02:20.586Z,3.10
2023-08-27T10:04:52.319Z,3.10
2023-08-27T10:07:19.123Z,3.80
2023-08-27T10:09:53.395Z,4.30
2023-08-27T10:12:22.502Z,7.60
2023-08-27T10:14:49.305Z,4.03
2023-08-27T10:17:17.192Z,3.40
2023-08-27T10:19:44.328Z,4.17
2023-08-27T10:22:12.888Z,3.47
2023-08-27T10:24:40.847Z,3.03
2023-08-27T10:27:07.596Z,3.63
2023-08-27T10:29:35.409Z,3.97
2023-08-27T10:32:03.952Z,3.23
2023-08-27T10:34:31.558Z,3.90
2023-08-27T10:37:05.089Z,2.70
2023-08-27T10:39:33.601Z,3.47
2023-08-27T10:42:00.352Z,3.10
2023-08-27T10:44:27.071Z,3.00
2023-08-27T10:47:15.012Z,2.60
2023-08-27T10:49:43.501Z,2.60
2023-08-27T10:52:14.840Z,2.17
2023-08-27T10:54:41.862Z,2.97
2023-08-27T10:57:23.813Z,2.87
2023-08-27T10:59:53.338Z,2.30
2023-08-27T11:02:20.149Z,2.30
2023-08-27T11:04:51.218Z,2.87
2023-08-27T11:07:19.830Z,2.50
2023-08-27T11:09:59.216Z,2.50
2023-08-27T11:12:36.181Z,2.77
2023-08-27T11:15:16.407Z,2.33
2023-08-27T11:17:43.750Z,2.30
2023-08-27T11:20:25.376Z,2.17
2023-08-27T11:23:00.167Z,2.20
2023-08-27T11:25:30.817Z,2.63
2023-08-27T11:28:02.492Z,2.10
2023-08-27T11:30:30.059Z,2.40
2023-08-27T11:32:57.536Z,2.10
2023-08-27T11:35:28.170Z,2.40
2023-08-27T11:37:55.706Z,2.20
2023-08-27T11:40:24.408Z,2.47
2023-08-27T11:42:51.847Z,2.33
2023-08-27T11:45:19.239Z,2.60
2023-08-27T11:47:45.972Z,2.80
2023-08-27T11:50:14.212Z,2.10
2023-08-27T11:52:41.110Z,2.87
2023-08-27T11:55:08.665Z,2.93
2023-08-27T11:57:35.527Z,2.90
2023-08-27T12:00:12.633Z,2.27
2023-08-27T12:02:41.057Z,2.20
2023-08-27T12:05:11.188Z,2.50
2023-08-27T12:07:38.183Z,2.00
2023-08-27T12:10:10.091Z,2.00
2023-08-27T12:12:40.261Z,1.90
2023-08-27T12:15:07.752Z,2.50
2023-08-27T12:17:36.231Z,2.90
2023-08-27T12:20:08.514Z,2.73
2023-08-27T12:22:43.062Z,3.60
2023-08-27T12:25:10.306Z,3.57
2023-08-27T12:27:37.144Z,4.87
2023-08-27T12:30:05.942Z,3.60
2023-08-27T12:32:34.464Z,3.07
2023-08-27T12:35:01.874Z,3.93
2023-08-27T12:39:57.178Z,3.10
2023-08-27T12:42:26.315Z,2.80
2023-08-27T12:44:54.147Z,2.97
2023-08-27T12:47:20.921Z,2.80
2023-08-27T12:49:47.625Z,3.10
2023-08-27T12:52:14.513Z,2.30
2023-08-27T12:54:42.561Z,2.50
2023-08-27T12:57:10.823Z,2.83
2023-08-27T12:59:37.812Z,2.60
2023-08-27T13:02:05.468Z,2.97
2023-08-27T13:04:32.435Z,3.17
2023-08-27T13:06:59.186Z,2.77
2023-08-27T13:09:26.014Z,2.60
2023-08-27T13:11:53.556Z,3.00
2023-08-27T13:14:20.292Z,2.50
2023-08-27T13:16:48.506Z,2.60
2023-08-27T13:19:15.949Z,2.80
2023-08-27T13:21:45.795Z,2.77
2023-08-27T13:24:12.795Z,3.50
2023-08-27T13:26:39.596Z,2.73
2023-08-27T13:29:06.415Z,3.67
2023-08-27T13:31:33.631Z,3.87
2023-08-27T13:34:00.350Z,3.67
2023-08-27T13:36:27.139Z,3.17
2023-08-27T13:38:53.889Z,3.33
2023-08-27T13:41:20.590Z,3.30
2023-08-27T13:43:47.233Z,3.83
2023-08-27T13:46:15.051Z,3.70
2023-08-27T13:48:41.839Z,3.97
2023-08-27T13:51:08.608Z,4.10
2023-08-27T13:53:35.351Z,3.50
2023-08-27T13:56:02.130Z,3.60
2023-08-27T13:58:30.377Z,2.97
2023-08-27T14:00:57.795Z,3.30
2023-08-27T14:03:24.852Z,3.30
2023-08-27T14:05:51.894Z,3.93
2023-08-27T14:08:26.360Z,3.70
2023-08-27T14:10:53.577Z,4.87
2023-08-27T14:13:20.566Z,5.03
2023-08-27T14:15:49.077Z,5.57
2023-08-27T14:18:16.093Z,4.83
2023-08-27T14:20:43.044Z,5.20
2023-08-27T14:23:09.797Z,4.50
2023-08-27T14:25:37.172Z,4.57
2023-08-27T14:28:04.945Z,4.37
2023-08-27T14:30:31.656Z,4.20
2023-08-27T14:32:58.412Z,4.13
2023-08-27T14:35:25.108Z,3.10
2023-08-27T14:37:51.821Z,3.33
2023-08-27T14:40:18.488Z,3.00
2023-08-27T14:42:45.136Z,3.23
2023-08-27T14:45:11.896Z,3.43
2023-08-27T14:47:39.267Z,3.83
2023-08-27T14:50:06.732Z,3.90
2023-08-27T14:52:33.424Z,3.70
2023-08-27T14:55:00.163Z,3.60
2023-08-27T14:57:26.848Z,3.20
2023-08-27T14:59:54.089Z,3.23
2023-08-27T15:02:20.782Z,3.17
2023-08-27T15:04:47.755Z,2.10
2023-08-27T15:07:14.526Z,2.60
2023-08-27T15:09:41.690Z,2.10
2023-08-27T15:12:17.453Z,2.70
2023-08-27T15:14:45.281Z,2.27
2023-08-27T15:17:12.246Z,2.47
2023-08-27T15:19:38.887Z,1.90
2023-08-27T15:22:05.588Z,2.20
2023-08-27T15:24:32.286Z,2.20
2023-08-27T15:26:59.003Z,2.03
2023-08-27T15:29:26.503Z,2.33
2023-08-27T15:31:53.273Z,2.10
2023-08-27T15:34:19.990Z,2.00
2023-08-27T15:36:47.405Z,2.13
2023-08-27T15:39:14.324Z,2.40
2023-08-27T15:41:41.700Z,2.00
2023-08-27T15:44:08.438Z,2.30
2023-08-27T15:46:35.240Z,2.40
2023-08-27T15:49:01.995Z,1.63
2023-08-27T15:51:28.937Z,2.00
2023-08-27T15:53:55.735Z,5.27
2023-08-27T15:56:22.380Z,3.30
2023-08-27T15:58:52.057Z,2.93
2023-08-27T16:01:19.058Z,2.17
2023-08-27T16:03:46.267Z,2.07
2023-08-27T16:06:13.461Z,2.20
2023-08-27T16:08:40.448Z,1.83
2023-08-27T16:11:07.975Z,2.10
2023-08-27T16:13:35.748Z,2.13
2023-08-27T16:16:02.594Z,1.90
2023-08-27T16:18:29.276Z,1.70
2023-08-27T16:20:56.226Z,1.70
2023-08-27T16:23:23.431Z,1.80
2023-08-27T16:25:51.146Z,2.50
2023-08-27T16:28:17.951Z,2.70
2023-08-27T16:30:44.705Z,2.30
2023-08-27T16:33:11.577Z,2.30
2023-08-27T16:35:38.428Z,2.17
2023-08-27T16:38:05.153Z,3.00
2023-08-27T16:40:37.003Z,2.70
2023-08-27T16:43:04.685Z,2.37
2023-08-27T16:45:31.941Z,2.30
2023-08-27T16:47:58.743Z,2.43
2023-08-27T16:50:25.721Z,3.33
2023-08-27T16:52:52.804Z,2.37
2023-08-27T16:55:19.473Z,2.97
2023-08-27T16:57:46.169Z,2.90
2023-08-27T17:00:13.414Z,2.93
2023-08-27T17:02:40.154Z,3.03
2023-08-27T17:05:07.287Z,2.97
2023-08-27T17:07:34.308Z,2.70
2023-08-27T17:10:01.025Z,3.20
2023-08-27T17:12:27.676Z,3.40
2023-08-27T17:14:55.081Z,3.47
2023-08-27T17:17:21.764Z,2.83
2023-08-27T17:19:48.420Z,2.20
2023-08-27T17:22:15.186Z,2.50
2023-08-27T17:24:41.761Z,3.90
2023-08-27T17:27:08.526Z,2.50
2023-08-27T17:29:35.174Z,3.00
2023-08-27T17:32:02.350Z,2.00
2023-08-27T17:34:28.996Z,1.80
2023-08-27T17:36:55.642Z,1.60
2023-08-27T17:39:22.293Z,1.40
2023-08-27T17:41:50.402Z,1.50
2023-08-27T17:44:17.519Z,1.53
2023-08-27T17:46:45.215Z,2.00
2023-08-27T17:49:11.937Z,1.90
2023-08-27T17:51:38.863Z,1.93
2023-08-27T17:54:06.877Z,2.00
2023-08-27T17:56:33.529Z,2.33
2023-08-27T17:59:00.438Z,2.03
2023-08-27T18:01:27.246Z,1.63
2023-08-27T18:03:53.909Z,2.37
2023-08-27T18:06:20.699Z,1.70
2023-08-27T18:08:47.349Z,2.73
2023-08-27T18:11:14.013Z,2.70
2023-08-27T18:13:40.660Z,2.40
2023-08-27T18:16:07.494Z,2.70
2023-08-27T18:18:34.246Z,2.67
2023-08-27T18:21:01.173Z,2.70
2023-08-27T18:23:27.829Z,3.23
2023-08-27T18:25:54.618Z,3.90
2023-08-27T18:28:21.285Z,3.07
2023-08-27T18:30:47.975Z,3.10
2023-08-27T18:33:14.678Z,2.60
2023-08-27T18:35:42.403Z,2.17
2023-08-27T18:38:09.105Z,2.33
2023-08-27T18:40:35.731Z,2.50
2023-08-27T18:43:02.996Z,1.80
2023-08-27T18:45:32.961Z,2.80
2023-08-27T18:48:00.239Z,2.53
2023-08-27T18:50:27.577Z,1.77
2023-08-27T18:52:54.297Z,2.87
2023-08-27T18:55:20.997Z,2.00
2023-08-27T18:57:47.673Z,2.30
2023-08-27T19:00:14.465Z,2.33
2023-08-27T19:05:08.219Z,2.90
2023-08-27T19:07:34.928Z,3.03
2023-08-27T19:10:01.668Z,2.97
2023-08-27T19:12:28.717Z,2.60
2023-08-27T19:14:55.840Z,2.67
2023-08-27T19:17:23.359Z,2.90
2023-08-27T19:19:50.092Z,2.63
2023-08-27T19:22:16.757Z,2.60
2023-08-27T19:24:44.327Z,3.20
2023-08-27T19:27:11.022Z,3.03
2023-08-27T19:29:37.737Z,2.70
2023-08-27T19:32:04.625Z,3.07
2023-08-27T19:34:31.312Z,3.70
2023-08-27T19:36:57.982Z,3.77
2023-08-27T19:39:24.681Z,3.97
2023-08-27T19:41:51.341Z,3.20
2023-08-27T19:44:19.021Z,3.30
2023-08-27T19:46:45.748Z,3.97
2023-08-27T19:49:12.496Z,4.03
2023-08-27T19:51:39.157Z,3.20
2023-08-27T19:54:06.151Z,2.80
2023-08-27T19:56:34.040Z,3.60
2023-08-27T19:59:00.905Z,4.10
2023-08-27T20:01:27.669Z,3.23
2023-08-27T20:03:54.466Z,3.30
2023-08-27T20:06:21.141Z,3.50
2023-08-27T20:08:47.782Z,2.77
2023-08-27T20:11:14.993Z,1.93
2023-08-27T20:13:41.622Z,3.13
2023-08-27T20:16:08.411Z,2.80
2023-08-27T20:18:35.079Z,2.57
2023-08-27T20:21:01.752Z,2.77
2023-08-27T20:23:29.557Z,2.53
2023-08-27T20:25:56.614Z,2.43
2023-08-27T20:28:23.950Z,2.47
2023-08-27T20:30:51.242Z,2.13
2023-08-27T20:33:17.940Z,2.00
2023-08-27T20:35:45.085Z,1.93
2023-08-27T20:38:11.824Z,2.23
2023-08-27T20:40:39.362Z,2.70
2023-08-27T20:43:06.605Z,2.70
2023-08-27T20:45:35.200Z,2.20
2023-08-27T20:48:03.516Z,2.50
2023-08-27T20:50:30.562Z,2.80
2023-08-27T20:52:57.263Z,2.83
2023-08-27T20:55:24.539Z,1.97
2023-08-27T20:57:51.183Z,2.47
2023-08-27T21:00:18.285Z,1.87
2023-08-27T21:02:45.045Z,2.40
2023-08-27T21:05:11.798Z,3.50
2023-08-27T21:07:38.812Z,3.13
2023-08-27T21:10:06.490Z,2.10
2023-08-27T21:12:34.398Z,2.20
2023-08-27T21:15:01.323Z,2.40
2023-08-27T21:17:28.404Z,2.63
2023-08-27T21:19:55.698Z,2.70
2023-08-27T21:22:22.414Z,2.43
2023-08-27T21:24:49.151Z,3.13
2023-08-27T21:27:16.046Z,1.90
2023-08-27T21:29:42.761Z,2.43
2023-08-27T21:32:09.498Z,2.00
2023-08-27T21:34:36.265Z,2.73
2023-08-27T21:37:02.989Z,2.00
2023-08-27T21:39:29.635Z,2.63
2023-08-27T21:41:56.324Z,2.20
2023-08-27T21:44:22.974Z,2.60
2023-08-27T21:46:49.659Z,2.87
2023-08-27T21:49:18.120Z,2.40
2023-08-27T21:51:45.862Z,4.40
2023-08-27T21:54:13.998Z,2.97
2023-08-27T21:56:41.026Z,2.80
2023-08-27T21:59:07.711Z,2.23
2023-08-27T22:01:34.742Z,2.17
2023-08-27T22:04:01.652Z,4.73
2023-08-27T22:06:28.742Z,3.13
2023-08-27T22:08:55.463Z,2.60
2023-08-27T22:11:22.654Z,3.40
2023-08-27T22:13:49.371Z,2.00
2023-08-27T22:16:16.112Z,2.60
2023-08-27T22:18:43.641Z,3.87
2023-08-27T22:21:10.333Z,4.07
2023-08-27T22:23:37.743Z,2.50
2023-08-27T22:26:04.798Z,3.60
2023-08-27T22:28:31.524Z,3.03
2023-08-27T22:30:58.240Z,2.87
2023-08-27T22:33:25.673Z,3.00
2023-08-27T22:35:52.313Z,2.83
2023-08-27T22:38:19.081Z,2.13
2023-08-27T22:40:45.970Z,2.60
2023-08-27T22:43:13.333Z,2.77
2023-08-27T22:45:40.723Z,3.10
2023-08-27T22:48:08.272Z,3.10
2023-08-27T22:50:35.806Z,2.70
2023-08-27T22:53:02.712Z,2.30
2023-08-27T22:55:29.618Z,2.77
2023-08-27T22:57:56.336Z,2.93
2023-08-27T23:00:23.065Z,2.57
2023-08-27T23:02:49.873Z,3.10
2023-08-27T23:05:16.817Z,3.00
2023-08-27T23:07:43.526Z,3.13
2023-08-27T23:10:10.426Z,2.93
2023-08-27T23:12:37.184Z,3.10
2023-08-27T23:15:04.787Z,3.10
2023-08-27T23:17:31.538Z,2.63
2023-08-27T23:19:58.342Z,2.80
2023-08-27T23:22:25.578Z,2.77
2023-08-27T23:24:52.271Z,3.23
2023-08-27T23:27:18.964Z,2.70
2023-08-27T23:29:45.640Z,3.10
2023-08-27T23:32:12.385Z,3.10
2023-08-27T23:34:39.056Z,2.63
2023-08-27T23:37:05.683Z,4.43
2023-08-27T23:39:34.572Z,3.70
2023-08-27T23:42:01.187Z,2.90
2023-08-27T23:44:27.868Z,3.90
2023-08-27T23:46:55.526Z,3.20
2023-08-27T23:49:22.268Z,2.90
2023-08-27T23:51:48.910Z,3.10
2023-08-27T23:54:15.609Z,2.40
2023-08-27T23:56:42.340Z,3.03
2023-08-27T23:59:09.283Z,3.30
